Time;durP1;ratioP1;P1;durP2;ratioP2;P2;SDS_P1;SDS_P2;PMS_P1;PMS_P2;Temp;Humidity;BMP_temperature;BMP_pressure;BME280_temperature;BME280_humidity;BME280_pressure;Samples;Min_cycle;Max_cycle;Signal;HPM_P1;HPM_P2
2023/05/25 00:00:19;;;;;;;9.27;6.83;;;6.40;1.00;;;;;;8352832;28;20209;-72
2023/05/25 00:04:20;;;;;;;10.93;7.07;;;6.40;99.90;;;;;;8350115;28;20212;-72
2023/05/25 00:08:21;;;;;;;11.10;6.77;;;6.30;72.90;;;;;;8352777;28;20186;-72
2023/05/25 00:12:22;;;;;;;8.60;6.97;;;6.30;1.00;;;;;;8350211;28;20216;-71
2023/05/25 00:16:24;;;;;;;11.43;6.90;;;6.20;99.90;;;;;;8348557;28;20214;-72
2023/05/25 00:20:25;;;;;;;10.40;7.20;;;6.10;99.90;;;;;;8347211;28;20218;-72
2023/05/25 00:24:26;;;;;;;12.63;7.60;;;6.10;99.70;;;;;;8349237;28;20201;-71
2023/05/25 00:28:26;;;;;;;11.10;7.80;;;6.10;99.90;;;;;;8345128;28;20236;-71
2023/05/25 00:32:28;;;;;;;11.80;7.93;;;6.10;1.00;;;;;;8357762;28;20196;-71
2023/05/25 00:36:29;;;;;;;12.93;7.70;;;6.00;1.00;;;;;;8357171;28;20194;-71
2023/05/25 00:40:30;;;;;;;17.20;8.83;;;6.00;3.80;;;;;;8354066;28;20212;-72
2023/05/25 00:44:31;;;;;;;9.60;7.03;;;6.10;99.90;;;;;;8357912;28;20276;-72
2023/05/25 00:48:32;;;;;;;11.93;7.50;;;6.00;99.90;;;;;;8355558;28;20192;-73
2023/05/25 00:52:34;;;;;;;18.10;8.37;;;6.00;83.90;;;;;;8353147;28;20308;-73
2023/05/25 00:56:38;;;;;;;13.33;7.97;;;6.00;99.90;;;;;;8353797;28;20186;-73
2023/05/25 01:00:44;;;;;;;11.43;7.83;;;6.00;99.90;;;;;;8349642;28;20221;-74
2023/05/25 01:04:52;;;;;;;8.63;7.23;;;6.00;1.00;;;;;;8354018;28;20205;-73
2023/05/25 01:08:59;;;;;;;14.23;8.30;;;6.00;99.90;;;;;;8352619;28;20231;-72
2023/05/25 01:13:04;;;;;;;11.03;7.00;;;6.00;1.00;;;;;;8354915;28;20244;-72
2023/05/25 01:17:06;;;;;;;9.60;7.10;;;6.00;1.00;;;;;;8367180;28;20189;-72
2023/05/25 01:21:13;;;;;;;12.20;7.77;;;6.00;1.00;;;;;;8349504;28;20221;-72
2023/05/25 01:25:32;;;;;;;12.37;7.33;;;6.00;1.00;;;;;;8336328;28;20213;-71
2023/05/25 01:29:34;;;;;;;15.63;8.13;;;6.00;1.00;;;;;;8348450;28;20297;-73
2023/05/25 01:33:37;;;;;;;14.63;7.77;;;6.00;2.40;;;;;;8350677;28;20327;-72
2023/05/25 01:37:48;;;;;;;14.70;8.10;;;6.00;90.30;;;;;;8351278;28;20301;-73
2023/05/25 01:41:49;;;;;;;12.07;8.83;;;5.90;99.90;;;;;;8346823;28;20197;-72
2023/05/25 01:45:55;;;;;;;12.80;9.07;;;5.90;99.90;;;;;;8350306;28;20177;-73
2023/05/25 01:50:19;;;;;;;13.63;9.13;;;5.90;65.70;;;;;;8347039;28;20211;-72
2023/05/25 01:54:26;;;;;;;16.20;9.57;;;5.80;75.70;;;;;;8355692;28;20219;-71
2023/05/25 01:58:32;;;;;;;15.07;9.70;;;5.80;99.90;;;;;;8348983;28;20236;-71
2023/05/25 02:02:33;;;;;;;13.80;9.50;;;5.80;99.90;;;;;;8357679;28;20213;-71
2023/05/25 02:06:37;;;;;;;17.17;11.30;;;5.70;99.90;;;;;;8346813;28;20193;-71
2023/05/25 02:10:38;;;;;;;15.27;11.07;;;5.70;99.90;;;;;;8349921;28;20198;-72
2023/05/25 02:14:40;;;;;;;15.80;11.67;;;5.70;99.90;;;;;;8349855;28;20229;-73
2023/05/25 02:18:43;;;;;;;18.13;11.03;;;5.60;99.90;;;;;;8352842;28;20220;-72
2023/05/25 02:22:45;;;;;;;16.70;12.33;;;5.60;99.90;;;;;;8352872;28;20221;-72
2023/05/25 02:26:46;;;;;;;16.43;11.67;;;5.60;99.90;;;;;;8360257;28;20215;-73
2023/05/25 02:30:47;;;;;;;23.30;12.57;;;5.60;99.90;;;;;;8362380;28;20194;-74
2023/05/25 02:34:48;;;;;;;22.10;12.30;;;5.60;99.90;;;;;;8354551;28;20288;-72
2023/05/25 02:38:52;;;;;;;19.43;12.40;;;5.60;99.90;;;;;;8348112;28;20230;-73
2023/05/25 02:42:53;;;;;;;19.73;12.67;;;5.70;99.90;;;;;;8354594;28;20212;-72
2023/05/25 02:46:54;;;;;;;18.17;11.83;;;5.70;99.90;;;;;;8358589;28;20194;-72
2023/05/25 02:50:55;;;;;;;20.83;12.77;;;5.70;99.90;;;;;;8354255;28;20247;-73
2023/05/25 02:54:56;;;;;;;19.33;11.20;;;5.70;99.90;;;;;;8360479;28;20323;-73
2023/05/25 02:58:57;;;;;;;28.70;12.67;;;5.70;99.90;;;;;;8349498;28;20224;-71
2023/05/25 03:02:58;;;;;;;20.73;12.50;;;5.90;99.90;;;;;;8357824;28;20293;-72
2023/05/25 03:06:59;;;;;;;19.87;13.23;;;5.90;99.90;;;;;;8352667;28;20182;-73
2023/05/25 03:11:00;;;;;;;19.50;12.20;;;5.90;99.90;;;;;;8350675;28;20226;-72
2023/05/25 03:15:01;;;;;;;21.73;11.60;;;6.00;99.90;;;;;;8367575;28;20185;-72
2023/05/25 03:19:04;;;;;;;22.10;12.00;;;6.20;99.90;;;;;;8348514;28;20221;-70
2023/05/25 03:23:09;;;;;;;17.67;12.00;;;6.50;99.90;;;;;;8345180;28;20182;-73
2023/05/25 03:27:10;;;;;;;19.43;11.90;;;6.80;99.90;;;;;;8344227;28;20186;-71
2023/05/25 03:31:12;;;;;;;19.57;11.30;;;7.10;99.90;;;;;;8343565;28;20206;-70
2023/05/25 03:35:13;;;;;;;15.27;10.83;;;7.40;99.90;;;;;;8347727;28;20208;-73
2023/05/25 03:39:15;;;;;;;20.43;10.97;;;7.60;1.00;;;;;;8352703;28;20287;-72
2023/05/25 03:43:17;;;;;;;18.07;10.37;;;7.70;99.90;;;;;;8342547;28;20198;-73
2023/05/25 03:47:17;;;;;;;16.07;9.60;;;8.30;99.90;;;;;;8351060;28;20240;-73
2023/05/25 03:51:18;;;;;;;13.90;10.43;;;9.00;42.10;;;;;;8361817;28;20190;-74
2023/05/25 03:55:20;;;;;;;11.37;8.77;;;9.70;99.90;;;;;;8359000;28;20197;-72
2023/05/25 03:59:24;;;;;;;18.53;9.53;;;10.30;99.90;;;;;;8350787;28;20213;-74
2023/05/25 04:03:31;;;;;;;12.23;8.40;;;10.70;1.00;;;;;;8352097;28;20230;-70
2023/05/25 04:07:32;;;;;;;12.43;8.10;;;10.90;99.90;;;;;;8349749;28;20193;-73
2023/05/25 04:11:33;;;;;;;11.27;8.40;;;11.40;99.90;;;;;;8349149;28;20229;-72
2023/05/25 04:15:34;;;;;;;13.63;8.43;;;12.00;99.90;;;;;;8350312;28;20225;-73
2023/05/25 04:19:35;;;;;;;10.67;7.67;;;12.50;99.90;;;;;;8349904;28;20208;-72
2023/05/25 04:23:36;;;;;;;11.63;6.63;;;13.00;99.90;;;;;;8356084;28;20267;-72
2023/05/25 04:27:37;;;;;;;12.47;8.70;;;13.50;99.90;;;;;;8348431;28;20181;-72
2023/05/25 04:31:38;;;;;;;10.53;7.03;;;13.60;99.90;;;;;;8346479;28;20269;-73
2023/05/25 04:35:42;;;;;;;9.97;7.53;;;13.70;99.90;;;;;;8350046;28;20194;-71
2023/05/25 04:39:43;;;;;;;10.90;6.53;;;13.90;99.90;;;;;;8348416;28;20215;-71
2023/05/25 04:43:46;;;;;;;10.70;6.40;;;14.40;99.90;;;;;;8349437;28;20210;-72
2023/05/25 04:47:48;;;;;;;8.17;6.57;;;14.80;90.90;;;;;;8352781;28;20228;-73
2023/05/25 04:51:50;;;;;;;12.10;7.60;;;15.00;49.70;;;;;;8349126;28;20197;-71
2023/05/25 04:55:51;;;;;;;10.60;7.00;;;14.70;49.60;;;;;;8342440;28;20194;-71
2023/05/25 04:59:55;;;;;;;10.73;6.87;;;14.80;35.80;;;;;;8351695;28;20206;-71
2023/05/25 05:03:56;;;;;;;10.17;7.03;;;14.90;46.50;;;;;;8355317;28;20217;-71
2023/05/25 05:07:58;;;;;;;10.43;7.63;;;14.70;55.50;;;;;;8342183;28;20206;-71
2023/05/25 05:12:00;;;;;;;9.90;6.80;;;14.40;89.50;;;;;;8330286;28;20202;-72
2023/05/25 05:16:05;;;;;;;11.87;7.97;;;13.90;99.90;;;;;;8347007;28;20196;-72
2023/05/25 05:20:07;;;;;;;12.60;7.93;;;13.60;99.90;;;;;;8345732;28;20247;-70
2023/05/25 05:24:08;;;;;;;9.13;6.53;;;13.30;99.90;;;;;;8350793;28;20193;-72
2023/05/25 05:28:12;;;;;;;10.40;6.90;;;13.20;99.90;;;;;;8342960;28;20179;-72
2023/05/25 05:32:13;;;;;;;9.73;7.80;;;13.10;99.90;;;;;;8343205;28;20198;-72
2023/05/25 05:36:14;;;;;;;12.77;7.40;;;13.40;99.90;;;;;;8339809;28;20221;-72
2023/05/25 05:40:15;;;;;;;16.20;8.60;;;13.50;99.90;;;;;;8347075;28;20220;-71
2023/05/25 05:44:16;;;;;;;11.73;7.47;;;13.50;99.90;;;;;;8347962;28;20183;-72
2023/05/25 05:48:17;;;;;;;12.57;8.13;;;13.50;99.90;;;;;;8345542;28;20209;-73
2023/05/25 05:52:18;;;;;;;11.77;7.17;;;13.40;99.90;;;;;;8346486;28;20193;-72
2023/05/25 05:56:20;;;;;;;11.63;7.87;;;13.30;99.90;;;;;;8352548;28;20200;-72
2023/05/25 06:00:22;;;;;;;19.20;8.47;;;13.40;99.90;;;;;;8343493;28;20277;-71
2023/05/25 06:04:27;;;;;;;11.53;8.60;;;13.40;99.90;;;;;;8347927;28;20240;-72
2023/05/25 06:08:28;;;;;;;15.20;8.80;;;13.50;99.90;;;;;;8349205;28;20236;-71
2023/05/25 06:12:29;;;;;;;10.07;7.30;;;13.60;99.90;;;;;;8343158;28;20197;-70
2023/05/25 06:16:29;;;;;;;11.33;7.77;;;13.70;99.90;;;;;;8348796;28;20186;-73
2023/05/25 06:20:31;;;;;;;12.13;7.33;;;13.80;99.90;;;;;;8356333;28;20248;-71
2023/05/25 06:24:32;;;;;;;12.50;7.37;;;13.90;99.90;;;;;;8345618;28;20182;-72
2023/05/25 06:28:33;;;;;;;12.47;7.77;;;14.10;99.90;;;;;;8334052;28;20193;-68
2023/05/25 06:32:34;;;;;;;12.93;6.80;;;14.10;99.90;;;;;;8347047;28;20195;-71
2023/05/25 06:36:36;;;;;;;9.30;6.10;;;14.10;99.90;;;;;;8346271;28;20243;-70
2023/05/25 06:40:40;;;;;;;10.53;6.33;;;14.10;99.90;;;;;;8343115;28;20210;-71
2023/05/25 06:44:41;;;;;;;13.57;5.67;;;14.30;99.90;;;;;;8341211;28;20275;-70
2023/05/25 06:48:42;;;;;;;9.60;5.07;;;14.50;99.90;;;;;;8347139;28;20190;-70
2023/05/25 06:52:43;;;;;;;15.97;6.03;;;14.80;99.90;;;;;;8342610;28;20201;-71
2023/05/25 06:56:45;;;;;;;11.13;5.80;;;14.90;99.90;;;;;;8356537;28;20193;-72
2023/05/25 07:00:45;;;;;;;10.93;5.40;;;15.00;99.90;;;;;;8343623;28;20213;-68
2023/05/25 07:04:46;;;;;;;10.40;4.90;;;14.90;99.90;;;;;;8351227;28;20222;-71
2023/05/25 07:08:47;;;;;;;8.40;5.40;;;15.10;99.90;;;;;;8350426;28;20193;-68
2023/05/25 07:12:48;;;;;;;10.63;5.10;;;15.30;99.90;;;;;;8353282;28;20209;-68
2023/05/25 07:16:49;;;;;;;8.70;4.90;;;15.50;99.90;;;;;;8331284;28;20206;-70
2023/05/25 07:20:50;;;;;;;11.60;5.70;;;15.70;99.90;;;;;;8352904;28;20223;-70
2023/05/25 07:24:51;;;;;;;9.13;5.03;;;16.00;99.90;;;;;;8356480;28;20221;-71
2023/05/25 07:28:53;;;;;;;9.77;5.10;;;16.20;95.10;;;;;;8345874;28;20190;-72
2023/05/25 07:32:54;;;;;;;7.53;4.67;;;16.10;78.10;;;;;;8349713;28;20186;-70
2023/05/25 07:36:55;;;;;;;11.67;5.20;;;16.30;92.80;;;;;;8346029;28;20208;-71
2023/05/25 07:40:56;;;;;;;10.00;4.73;;;16.60;67.80;;;;;;8348715;28;20213;-71
2023/05/25 07:44:57;;;;;;;9.83;4.40;;;16.80;55.10;;;;;;8351740;28;20355;-72
2023/05/25 07:48:58;;;;;;;9.70;5.00;;;17.20;59.60;;;;;;8349313;28;20200;-70
2023/05/25 07:52:59;;;;;;;8.53;3.87;;;17.40;1.00;;;;;;8350268;28;20255;-71
2023/05/25 07:57:00;;;;;;;6.60;4.27;;;17.50;1.00;;;;;;8343015;28;20186;-68
2023/05/25 08:01:02;;;;;;;7.73;3.97;;;18.30;1.00;;;;;;8350460;28;20221;-72
2023/05/25 08:05:04;;;;;;;5.67;3.63;;;19.00;1.00;;;;;;8351408;28;20216;-71
2023/05/25 08:09:06;;;;;;;6.50;3.37;;;19.20;1.00;;;;;;8354558;28;20208;-71
2023/05/25 08:13:11;;;;;;;7.20;3.70;;;19.70;1.00;;;;;;8346844;28;20190;-71
2023/05/25 08:17:11;;;;;;;7.00;3.67;;;20.10;1.00;;;;;;8354322;28;20213;-71
2023/05/25 08:21:13;;;;;;;7.70;3.60;;;20.20;1.00;;;;;;8360700;28;20223;-71
2023/05/25 08:25:14;;;;;;;6.17;4.00;;;19.60;1.00;;;;;;8352664;28;20212;-70
2023/05/25 08:29:15;;;;;;;5.53;3.40;;;19.20;1.00;;;;;;8348034;28;20202;-69
2023/05/25 08:33:16;;;;;;;6.43;3.80;;;19.60;1.00;;;;;;8345467;28;20281;-71
2023/05/25 08:37:18;;;;;;;5.20;3.50;;;19.40;1.00;;;;;;8350230;28;20193;-70
2023/05/25 08:41:22;;;;;;;7.83;3.70;;;18.70;1.00;;;;;;8356879;28;20297;-72
2023/05/25 08:45:23;;;;;;;5.33;3.60;;;17.90;1.00;;;;;;8350206;28;20216;-70
2023/05/25 08:49:25;;;;;;;6.70;3.40;;;17.90;1.00;;;;;;8350022;28;20249;-71
2023/05/25 08:53:29;;;;;;;4.90;3.17;;;18.60;1.00;;;;;;8354909;28;20185;-71
2023/05/25 08:57:43;;;;;;;4.77;2.93;;;19.40;1.00;;;;;;8362050;28;20189;-71
2023/05/25 09:01:47;;;;;;;6.67;3.47;;;19.60;1.00;;;;;;8340900;28;20222;-71
2023/05/25 09:05:50;;;;;;;6.23;3.70;;;19.10;1.00;;;;;;8337546;28;20209;-70
2023/05/25 09:09:52;;;;;;;6.23;3.43;;;18.30;1.00;;;;;;8348072;28;20205;-71
2023/05/25 09:13:55;;;;;;;5.17;3.50;;;18.20;1.00;;;;;;8344276;28;20190;-72
2023/05/25 09:18:00;;;;;;;4.87;3.17;;;18.80;1.00;;;;;;8344950;28;20246;-71
2023/05/25 09:22:01;;;;;;;4.63;3.30;;;19.30;1.00;;;;;;8348228;28;20209;-71
2023/05/25 09:26:03;;;;;;;7.23;3.93;;;19.60;1.00;;;;;;8345936;28;20189;-71
2023/05/25 09:30:05;;;;;;;6.80;3.23;;;19.60;1.00;;;;;;8337875;28;20284;-71
2023/05/25 09:34:15;;;;;;;3.77;2.53;;;20.00;1.00;;;;;;8360317;28;20194;-72
2023/05/25 09:38:16;;;;;;;6.03;3.97;;;20.60;1.00;;;;;;8347128;28;20194;-71
2023/05/25 09:42:17;;;;;;;5.73;3.53;;;20.30;1.00;;;;;;8333000;28;20182;-71
2023/05/25 09:46:25;;;;;;;9.10;3.13;;;19.70;1.00;;;;;;8343261;28;20190;-69
2023/05/25 09:50:27;;;;;;;5.17;2.80;;;18.60;1.00;;;;;;8351294;28;20192;-69
2023/05/25 09:54:29;;;;;;;5.33;3.47;;;18.30;1.00;;;;;;8345034;28;20198;-68
2023/05/25 09:58:30;;;;;;;6.40;3.30;;;18.60;1.00;;;;;;8348627;28;20198;-69
2023/05/25 10:02:31;;;;;;;6.73;3.30;;;19.60;1.00;;;;;;8343522;28;20206;-71
2023/05/25 10:06:33;;;;;;;6.27;3.17;;;20.60;1.00;;;;;;8345306;28;20299;-71
2023/05/25 10:10:35;;;;;;;5.30;3.40;;;20.70;1.00;;;;;;8345385;28;20197;-72
2023/05/25 10:14:37;;;;;;;4.87;3.17;;;20.00;1.00;;;;;;8357653;28;20182;-71
2023/05/25 10:18:46;;;;;;;5.67;3.30;;;19.20;1.00;;;;;;8341239;28;20238;-68
2023/05/25 10:23:05;;;;;;;5.43;2.37;;;18.90;1.00;;;;;;8346619;28;20277;-71
2023/05/25 10:27:09;;;;;;;5.17;2.83;;;19.50;1.00;;;;;;8352403;28;20192;-72
2023/05/25 10:31:12;;;;;;;4.93;2.70;;;20.70;1.00;;;;;;8352089;28;20247;-71
2023/05/25 10:35:13;;;;;;;4.20;2.77;;;21.40;1.00;;;;;;8349356;28;20199;-69
2023/05/25 10:39:16;;;;;;;5.90;2.83;;;20.90;1.00;;;;;;8358479;28;20201;-72
2023/05/25 10:43:21;;;;;;;6.17;3.00;;;20.40;1.00;;;;;;8371560;28;20220;-71
2023/05/25 10:47:23;;;;;;;4.47;3.10;;;20.00;1.00;;;;;;8350099;28;20249;-71
2023/05/25 10:51:42;;;;;;;6.70;3.07;;;19.90;1.00;;;;;;8352234;28;20189;-71
2023/05/25 10:55:52;;;;;;;5.47;3.17;;;19.90;1.00;;;;;;8351243;28;20194;-72
2023/05/25 11:00:07;;;;;;;4.90;3.20;;;20.30;1.00;;;;;;8350163;28;20206;-72
2023/05/25 11:04:15;;;;;;;5.90;3.70;;;20.90;1.00;;;;;;8356513;28;20213;-71
2023/05/25 11:08:22;;;;;;;7.70;4.17;;;20.50;1.00;;;;;;8353671;28;20220;-71
2023/05/25 11:12:23;;;;;;;4.43;2.93;;;20.30;1.00;;;;;;8352004;28;20205;-71
2023/05/25 11:16:29;;;;;;;4.93;2.90;;;20.10;1.00;;;;;;8350330;28;20272;-70
2023/05/25 11:20:30;;;;;;;6.23;3.33;;;20.20;1.00;;;;;;8349458;28;20215;-70
2023/05/25 11:24:31;;;;;;;5.10;3.10;;;20.50;1.00;;;;;;8352809;28;20189;-73
2023/05/25 11:28:32;;;;;;;4.40;3.37;;;20.40;1.00;;;;;;8341951;28;20194;-72
2023/05/25 11:32:38;;;;;;;4.80;3.20;;;20.40;1.00;;;;;;8355163;28;20185;-71
2023/05/25 11:36:40;;;;;;;6.43;2.83;;;21.00;1.00;;;;;;8359171;28;20194;-71
2023/05/25 11:40:41;;;;;;;5.97;2.90;;;20.90;1.00;;;;;;8368385;28;20222;-73
2023/05/25 11:44:42;;;;;;;4.90;2.97;;;21.00;1.00;;;;;;8351915;28;20292;-72
2023/05/25 11:48:45;;;;;;;8.87;3.20;;;20.60;1.00;;;;;;8348043;28;20260;-66
2023/05/25 11:52:46;;;;;;;6.10;3.60;;;20.60;1.00;;;;;;8351175;28;20201;-72
2023/05/25 11:56:47;;;;;;;5.20;3.20;;;20.80;1.00;;;;;;8353727;28;20193;-72
2023/05/25 12:00:48;;;;;;;4.67;3.73;;;21.30;1.00;;;;;;8356200;28;20214;-69
2023/05/25 12:05:07;;;;;;;7.07;3.60;;;21.30;1.00;;;;;;8350062;28;20213;-72
2023/05/25 12:09:14;;;;;;;4.83;3.50;;;21.00;1.00;;;;;;8363833;28;20292;-70
2023/05/25 12:13:15;;;;;;;5.93;3.70;;;21.00;1.00;;;;;;8350639;28;20185;-70
2023/05/25 12:17:17;;;;;;;5.17;3.57;;;21.00;1.00;;;;;;8350830;28;20189;-67
2023/05/25 12:21:20;;;;;;;6.37;3.80;;;21.00;1.00;;;;;;8350526;28;20234;-68
2023/05/25 12:25:23;;;;;;;5.80;3.90;;;20.70;1.00;;;;;;8348783;28;20194;-69
2023/05/25 12:29:25;;;;;;;6.17;3.80;;;20.80;1.00;;;;;;8351117;28;20227;-70
2023/05/25 12:33:28;;;;;;;5.03;3.80;;;20.40;1.00;;;;;;8362427;28;20215;-69
2023/05/25 12:37:30;;;;;;;5.03;3.60;;;20.10;1.00;;;;;;8352361;28;20182;-70
2023/05/25 12:41:31;;;;;;;6.17;4.07;;;20.10;1.00;;;;;;8351036;28;20212;-71
2023/05/25 12:45:32;;;;;;;6.17;3.77;;;20.40;1.00;;;;;;8342967;28;20190;-71
2023/05/25 12:49:33;;;;;;;4.93;3.80;;;20.50;1.00;;;;;;8353417;28;20185;-70
2023/05/25 12:53:51;;;;;;;7.87;4.47;;;20.40;1.00;;;;;;8347719;28;20231;-70
2023/05/25 12:58:26;;;;;;;6.37;3.87;;;20.60;1.00;;;;;;8367898;28;20232;-70
2023/05/25 13:02:27;;;;;;;3.83;3.47;;;20.90;1.00;;;;;;8347989;28;20296;-71
2023/05/25 13:06:34;;;;;;;5.60;3.53;;;21.10;1.00;;;;;;8348237;28;20197;-69
2023/05/25 13:10:36;;;;;;;5.73;3.87;;;21.00;1.00;;;;;;8349607;28;20326;-72
2023/05/25 13:14:37;;;;;;;6.07;3.63;;;20.80;1.00;;;;;;8352949;28;20224;-69
2023/05/25 13:18:39;;;;;;;5.97;3.63;;;20.80;1.00;;;;;;8350617;28;20201;-70
2023/05/25 13:22:42;;;;;;;7.07;3.97;;;20.50;1.00;;;;;;8351630;28;20182;-71
2023/05/25 13:26:43;;;;;;;5.87;3.60;;;20.60;1.00;;;;;;8348097;28;20203;-71
2023/05/25 13:30:44;;;;;;;5.37;3.40;;;21.10;1.00;;;;;;8348087;28;20185;-71
2023/05/25 13:34:46;;;;;;;7.93;3.40;;;21.40;1.00;;;;;;8350332;28;20189;-71
2023/05/25 13:38:47;;;;;;;5.07;3.33;;;21.40;1.00;;;;;;8349933;28;20229;-70
2023/05/25 13:42:52;;;;;;;7.00;2.97;;;21.40;1.00;;;;;;8349417;28;20197;-71
2023/05/25 13:46:53;;;;;;;4.93;3.20;;;21.60;1.00;;;;;;8340526;28;20292;-69
2023/05/25 13:50:54;;;;;;;5.13;3.20;;;21.90;1.00;;;;;;8345261;28;20186;-71
2023/05/25 13:54:55;;;;;;;5.43;3.03;;;21.90;1.00;;;;;;8362228;28;20198;-70
2023/05/25 13:58:56;;;;;;;4.90;3.30;;;21.80;1.00;;;;;;8337054;28;20205;-72
2023/05/25 14:02:58;;;;;;;6.17;3.27;;;21.60;1.00;;;;;;8347687;28;20394;-71
2023/05/25 14:07:02;;;;;;;4.57;2.80;;;21.00;1.00;;;;;;8346953;28;20217;-71
2023/05/25 14:11:04;;;;;;;4.53;2.77;;;20.80;1.00;;;;;;8345497;28;20197;-71
2023/05/25 14:15:10;;;;;;;6.40;3.27;;;21.10;1.00;;;;;;8349914;28;20196;-72
2023/05/25 14:19:13;;;;;;;7.80;2.93;;;21.40;1.00;;;;;;8345415;28;20201;-69
2023/05/25 14:23:15;;;;;;;7.50;3.20;;;21.50;1.00;;;;;;8342231;28;20183;-72
2023/05/25 14:27:19;;;;;;;8.33;3.30;;;21.30;1.00;;;;;;8335775;28;20187;-71
2023/05/25 14:31:20;;;;;;;7.23;3.00;;;21.10;1.00;;;;;;8361266;28;20194;-70
2023/05/25 14:35:22;;;;;;;4.70;2.90;;;21.00;1.00;;;;;;8352725;28;20192;-69
2023/05/25 14:39:23;;;;;;;5.17;3.13;;;21.20;1.00;;;;;;8350015;28;20294;-71
2023/05/25 14:43:25;;;;;;;9.27;3.50;;;21.50;1.00;;;;;;8354793;28;20178;-71
2023/05/25 14:47:26;;;;;;;4.13;3.20;;;21.10;1.00;;;;;;8352336;28;20244;-71
2023/05/25 14:51:27;;;;;;;8.40;3.53;;;20.90;1.00;;;;;;8354465;28;20191;-72
2023/05/25 14:55:28;;;;;;;6.10;3.13;;;21.20;1.00;;;;;;8354719;28;20217;-72
2023/05/25 14:59:29;;;;;;;5.07;2.60;;;21.50;1.00;;;;;;8352794;28;20236;-72
2023/05/25 15:03:33;;;;;;;5.83;2.87;;;21.30;1.00;;;;;;8351176;28;20282;-71
2023/05/25 15:07:52;;;;;;;;;;;;;;;;;;;;;
2023/05/25 15:11:53;;;;;;;4.60;3.07;;;21.20;1.00;;;;;;8349615;28;20225;-65
2023/05/25 15:15:58;;;;;;;5.37;3.07;;;21.00;1.00;;;;;;8352697;28;20185;-66
2023/05/25 15:20:00;;;;;;;7.70;3.00;;;20.70;1.00;;;;;;8352703;28;20218;-64
2023/05/25 15:24:04;;;;;;;7.47;3.47;;;20.70;1.00;;;;;;8347149;28;20190;-65
2023/05/25 15:28:14;;;;;;;7.50;3.07;;;20.50;1.00;;;;;;8351085;28;20189;-65
2023/05/25 15:32:16;;;;;;;5.20;3.30;;;20.60;1.00;;;;;;8347854;28;20231;-65
2023/05/25 15:36:18;;;;;;;6.57;3.27;;;20.70;1.00;;;;;;8347429;28;20232;-66
2023/05/25 15:40:20;;;;;;;7.63;3.50;;;21.00;1.00;;;;;;8348560;28;20210;-65
2023/05/25 15:44:21;;;;;;;4.70;3.07;;;21.10;1.00;;;;;;8350961;28;20206;-66
2023/05/25 15:48:22;;;;;;;6.83;3.13;;;21.30;1.00;;;;;;8345612;28;20186;-66
2023/05/25 15:52:25;;;;;;;6.07;3.33;;;21.20;1.00;;;;;;8345106;28;20186;-63
2023/05/25 15:56:26;;;;;;;5.77;2.80;;;20.90;1.00;;;;;;8344328;28;20179;-65
2023/05/25 16:00:28;;;;;;;6.67;3.40;;;20.70;1.00;;;;;;8346907;28;20214;-64
2023/05/25 16:04:29;;;;;;;5.17;3.20;;;20.60;1.00;;;;;;8344970;28;20206;-63
2023/05/25 16:08:33;;;;;;;6.50;3.73;;;20.50;1.00;;;;;;8348613;28;20227;-65
2023/05/25 16:12:34;;;;;;;6.60;3.13;;;20.80;1.00;;;;;;8349722;28;20393;-65
2023/05/25 16:16:35;;;;;;;5.73;2.87;;;20.90;1.00;;;;;;8342857;28;20197;-64
2023/05/25 16:20:42;;;;;;;5.53;3.20;;;20.90;1.00;;;;;;8338002;28;20213;-64
2023/05/25 16:24:43;;;;;;;7.10;3.27;;;20.90;1.00;;;;;;8345836;28;20198;-66
2023/05/25 16:28:45;;;;;;;4.90;3.23;;;21.00;1.00;;;;;;8348552;28;20191;-65
2023/05/25 16:32:49;;;;;;;4.53;3.23;;;21.00;1.00;;;;;;8345215;28;20186;-65
2023/05/25 16:36:52;;;;;;;5.97;2.93;;;20.60;1.00;;;;;;8342291;28;20188;-64
2023/05/25 16:40:56;;;;;;;4.33;2.97;;;20.40;1.00;;;;;;8337411;28;20217;-65
2023/05/25 16:44:57;;;;;;;5.13;3.37;;;20.40;1.00;;;;;;8340911;28;20183;-64
2023/05/25 16:49:04;;;;;;;8.60;3.43;;;20.40;1.00;;;;;;8347467;28;20236;-63
2023/05/25 16:53:05;;;;;;;6.00;3.27;;;20.30;1.00;;;;;;8344348;28;20244;-65
2023/05/25 16:57:10;;;;;;;4.90;3.47;;;20.20;1.00;;;;;;8347459;28;20341;-65
2023/05/25 17:01:10;;;;;;;5.43;3.17;;;20.30;1.00;;;;;;8342241;28;20205;-64
2023/05/25 17:05:11;;;;;;;6.13;3.37;;;20.40;1.00;;;;;;8344934;28;20243;-64
2023/05/25 17:09:13;;;;;;;4.10;2.90;;;20.50;1.00;;;;;;8339336;28;20231;-65
2023/05/25 17:13:14;;;;;;;5.53;3.10;;;20.40;1.00;;;;;;8345916;28;20194;-65
2023/05/25 17:17:15;;;;;;;5.67;3.20;;;20.50;1.00;;;;;;8344358;28;20190;-66
2023/05/25 17:21:16;;;;;;;4.63;3.10;;;20.90;1.00;;;;;;8345825;28;20235;-65
2023/05/25 17:25:20;;;;;;;5.90;3.00;;;21.40;1.00;;;;;;8340024;28;20190;-65
2023/05/25 17:29:21;;;;;;;6.70;3.67;;;21.90;1.00;;;;;;8348016;28;20201;-65
2023/05/25 17:33:22;;;;;;;5.10;2.97;;;22.10;1.00;;;;;;8346579;28;20204;-65
2023/05/25 17:37:25;;;;;;;5.43;3.33;;;22.40;1.00;;;;;;8350301;28;20186;-65
2023/05/25 17:41:26;;;;;;;11.70;3.50;;;22.80;1.00;;;;;;8348750;28;20248;-64
2023/05/25 17:45:27;;;;;;;5.13;2.87;;;23.00;1.00;;;;;;8359969;28;20252;-65
2023/05/25 17:49:28;;;;;;;6.93;2.80;;;23.10;1.00;;;;;;8351880;28;20194;-65
2023/05/25 17:53:30;;;;;;;6.63;3.97;;;23.30;1.00;;;;;;8343842;28;20284;-66
2023/05/25 17:57:31;;;;;;;9.50;4.13;;;23.50;1.00;;;;;;8343607;28;20190;-65
2023/05/25 18:01:33;;;;;;;5.30;3.40;;;23.90;1.00;;;;;;8343190;28;20209;-66
2023/05/25 18:05:37;;;;;;;4.57;2.70;;;23.60;1.00;;;;;;8343401;28;20286;-66
2023/05/25 18:09:38;;;;;;;4.40;3.23;;;23.50;1.00;;;;;;8338340;28;20204;-66
2023/05/25 18:13:39;;;;;;;5.30;3.40;;;23.30;1.00;;;;;;8341330;28;20216;-66
2023/05/25 18:17:40;;;;;;;4.70;2.83;;;22.90;1.00;;;;;;8337808;28;20206;-66
2023/05/25 18:21:41;;;;;;;7.53;3.20;;;22.20;1.00;;;;;;8344807;28;20221;-66
2023/05/25 18:25:42;;;;;;;4.53;3.20;;;21.40;1.00;;;;;;8339112;28;20197;-66
2023/05/25 18:29:43;;;;;;;4.33;3.07;;;20.60;1.00;;;;;;8340445;28;20198;-66
2023/05/25 18:33:44;;;;;;;5.40;3.67;;;20.30;1.00;;;;;;8345850;28;20313;-67
2023/05/25 18:37:45;;;;;;;5.73;3.10;;;20.00;1.00;;;;;;8346684;28;20202;-67
2023/05/25 18:41:46;;;;;;;5.43;3.90;;;19.50;1.00;;;;;;8345045;28;20228;-66
2023/05/25 18:45:47;;;;;;;5.40;3.63;;;18.90;1.00;;;;;;8339015;28;20213;-65
2023/05/25 18:49:52;;;;;;;6.43;3.70;;;18.20;1.00;;;;;;8347605;28;20186;-66
2023/05/25 18:53:53;;;;;;;5.00;3.90;;;17.60;1.00;;;;;;8341694;28;20190;-66
2023/05/25 18:57:55;;;;;;;4.47;3.80;;;17.00;39.60;;;;;;8349004;28;20259;-64
2023/05/25 19:01:56;;;;;;;4.10;3.37;;;16.50;88.10;;;;;;8350449;28;20213;-64
2023/05/25 19:05:58;;;;;;;3.77;3.30;;;16.10;99.90;;;;;;8353653;28;20330;-65
2023/05/25 19:09:59;;;;;;;3.40;2.90;;;15.70;99.90;;;;;;8366867;28;20200;-65
2023/05/25 19:14:00;;;;;;;4.57;3.20;;;15.40;99.90;;;;;;8352980;28;20195;-65
2023/05/25 19:18:05;;;;;;;5.00;3.37;;;15.10;99.90;;;;;;8350319;28;20198;-65
2023/05/25 19:22:06;;;;;;;5.17;3.57;;;14.90;99.90;;;;;;8354678;28;20205;-62
2023/05/25 19:26:07;;;;;;;6.13;4.30;;;14.70;99.90;;;;;;8352111;28;20224;-62
2023/05/25 19:30:08;;;;;;;6.03;4.10;;;14.50;99.90;;;;;;8357196;28;20418;-62
2023/05/25 19:34:09;;;;;;;6.10;4.17;;;14.30;99.90;;;;;;8350812;28;20213;-62
2023/05/25 19:38:10;;;;;;;5.57;4.20;;;14.10;99.90;;;;;;8349821;28;20274;-62
2023/05/25 19:42:18;;;;;;;4.87;4.10;;;13.90;1.00;;;;;;8351683;28;20213;-62
2023/05/25 19:46:19;;;;;;;7.33;4.47;;;13.70;1.00;;;;;;8346794;28;20186;-62
2023/05/25 19:50:20;;;;;;;7.37;4.30;;;13.50;1.00;;;;;;8344997;28;20187;-61
2023/05/25 19:54:21;;;;;;;5.47;3.97;;;13.30;1.00;;;;;;8350785;28;20194;-61
2023/05/25 19:58:22;;;;;;;5.93;4.53;;;13.10;1.00;;;;;;8355324;28;20243;-63
2023/05/25 20:02:29;;;;;;;5.47;4.13;;;12.90;1.00;;;;;;8348732;28;20220;-62
2023/05/25 20:06:31;;;;;;;5.83;3.90;;;12.80;1.00;;;;;;8347733;28;20280;-63
2023/05/25 20:10:37;;;;;;;4.80;4.20;;;12.70;23.20;;;;;;8335470;28;20202;-63
2023/05/25 20:14:38;;;;;;;5.17;4.13;;;12.50;90.50;;;;;;8349070;28;20187;-62
2023/05/25 20:18:39;;;;;;;5.63;4.23;;;12.40;99.90;;;;;;8349853;28;20186;-62
2023/05/25 20:22:40;;;;;;;7.30;4.00;;;12.30;99.90;;;;;;8353379;28;20261;-62
2023/05/25 20:26:41;;;;;;;5.63;4.10;;;12.20;99.90;;;;;;8345055;28;20185;-62
2023/05/25 20:30:43;;;;;;;5.07;3.93;;;12.10;99.90;;;;;;8348831;28;20303;-62
2023/05/25 20:34:43;;;;;;;6.67;4.30;;;12.00;99.90;;;;;;8347701;28;20189;-63
2023/05/25 20:38:44;;;;;;;5.63;3.90;;;11.90;99.90;;;;;;8350357;28;20184;-62
2023/05/25 20:42:46;;;;;;;5.43;3.83;;;11.70;99.90;;;;;;8345121;28;20213;-63
2023/05/25 20:46:47;;;;;;;4.83;4.13;;;11.60;99.90;;;;;;8347510;28;20185;-63
2023/05/25 20:50:48;;;;;;;4.13;3.73;;;11.50;99.90;;;;;;8348819;28;20386;-63
2023/05/25 20:54:49;;;;;;;5.60;4.07;;;11.40;99.90;;;;;;8346780;28;20194;-63
2023/05/25 20:58:50;;;;;;;5.27;3.83;;;11.30;99.90;;;;;;8350836;28;20360;-63
2023/05/25 21:02:51;;;;;;;4.60;4.00;;;11.20;99.90;;;;;;8351911;28;20230;-62
2023/05/25 21:06:52;;;;;;;5.03;3.57;;;11.10;1.00;;;;;;8344161;28;20192;-62
2023/05/25 21:10:54;;;;;;;5.07;3.90;;;11.00;1.00;;;;;;8347887;28;20207;-63